Sao Miguel dos Campos, Brazil
Current Conditions -  °F | °C
As of 10:00 AM on Saturday 25 Oct 2014 (Local Time) from SBMO Reporting Station
Few Clouds Few Clouds  
Wind Chill: 28°   Ceiling: Unl
Heat Index: 29°   Visibility: 6mi
Dew Point: 18°   Wind: 12mph
Humidity: 54%   Direction: 100°E
Pressure: 29.97"   Gusts: NA
Location:  9.78°S, 36.09°W
Report Text: SBMO 251300Z 10010KT 9999 FEW020 28/18 Q1015
Loading
Personal Weather Stations






























Interactive Weather Map
Tropical Storm Tracking
New forecast layout! Learn more

10-Day Weather Forecast

Advertisements
Track Severe Weather on mobile